Time;durP1;ratioP1;P1;durP2;ratioP2;P2;SDS_P1;SDS_P2;PMS_P1;PMS_P2;Temp;Humidity;BMP_temperature;BMP_pressure;BME280_temperature;BME280_humidity;BME280_pressure;Samples;Min_cycle;Max_cycle;Signal;HPM_P1;HPM_P2
2022/02/20 00:00:20;;;;;;;36.47;23.75;;;;;;;-1.21;100.00;98965.47;2090699;28;20195;-72
2022/02/20 00:01:28;;;;;;;39.70;23.75;;;;;;;-1.28;100.00;98964.75;2083114;28;20184;-72
2022/02/20 00:02:33;;;;;;;35.28;22.88;;;;;;;-1.29;100.00;98970.22;2082554;28;20215;-72
2022/02/20 00:03:38;;;;;;;48.97;25.45;;;;;;;-1.34;100.00;98976.09;2082228;28;20192;-72
2022/02/20 00:04:42;;;;;;;39.58;23.88;;;;;;;-1.35;100.00;98964.03;2082392;28;20242;-72
2022/02/20 00:05:43;;;;;;;42.95;26.10;;;;;;;-1.35;100.00;98966.66;2074241;28;20575;-72
2022/02/20 00:06:45;;;;;;;37.90;24.35;;;;;;;-1.35;100.00;98971.09;2081836;28;20265;-72
2022/02/20 00:07:47;;;;;;;49.25;24.30;;;;;;;-1.38;100.00;98964.50;2082842;28;20279;-71
2022/02/20 00:08:53;;;;;;;45.30;25.23;;;;;;;-1.36;100.00;98972.13;2082779;28;20662;-72
2022/02/20 00:09:59;;;;;;;39.97;24.70;;;;;;;-1.35;100.00;98971.09;2082039;28;20211;-72
2022/02/20 00:11:04;;;;;;;48.92;25.20;;;;;;;-1.37;100.00;98967.91;2082179;28;20278;-72
2022/02/20 00:12:07;;;;;;;45.00;24.05;;;;;;;-1.41;100.00;98964.91;2082780;28;20282;-72
2022/02/20 00:13:11;;;;;;;43.47;23.90;;;;;;;-1.42;100.00;98963.31;2082215;28;20192;-72
2022/02/20 00:14:13;;;;;;;41.63;25.27;;;;;;;-1.45;100.00;98963.78;2082789;28;20199;-72
2022/02/20 00:15:19;;;;;;;43.55;24.38;;;;;;;-1.49;100.00;98963.41;2082314;28;20290;-72
2022/02/20 00:16:28;;;;;;;44.33;24.75;;;;;;;-1.53;100.00;98964.06;2075167;28;20219;-72
2022/02/20 00:17:32;;;;;;;45.55;24.05;;;;;;;-1.55;100.00;98958.25;2082363;28;20654;-72
2022/02/20 00:18:34;;;;;;;45.95;24.88;;;;;;;-1.60;100.00;98958.09;2082686;28;20619;-71
2022/02/20 00:19:35;;;;;;;42.20;24.25;;;;;;;-1.64;100.00;98959.59;2082678;28;20588;-73
2022/02/20 00:20:38;;;;;;;38.00;23.67;;;;;;;-1.68;100.00;98959.19;2090194;28;20574;-72
2022/02/20 00:21:46;;;;;;;37.33;24.05;;;;;;;-1.71;100.00;98960.44;2089868;28;20586;-72
2022/02/20 00:22:55;;;;;;;43.72;25.38;;;;;;;-1.75;100.00;98953.25;2081419;28;20203;-72
2022/02/20 00:24:02;;;;;;;47.13;24.45;;;;;;;-1.78;100.00;98959.72;2083007;28;20191;-72
2022/02/20 00:25:11;;;;;;;38.30;24.40;;;;;;;-1.84;100.00;98952.72;2081814;28;20697;-72
2022/02/20 00:26:15;;;;;;;39.42;24.38;;;;;;;-1.85;100.00;98960.81;2082139;28;20176;-71
2022/02/20 00:27:17;;;;;;;43.17;24.05;;;;;;;-1.87;100.00;98961.03;2082687;28;20676;-72
2022/02/20 00:28:23;;;;;;;45.72;24.35;;;;;;;-1.88;100.00;98963.88;2082109;28;20191;-72
2022/02/20 00:29:29;;;;;;;40.10;24.92;;;;;;;-1.91;100.00;98959.88;2074585;28;20259;-72
2022/02/20 00:30:38;;;;;;;36.00;24.25;;;;;;;-1.93;100.00;98956.66;2082121;28;20184;-72
2022/02/20 00:31:48;;;;;;;41.58;25.15;;;;;;;-1.96;100.00;98951.88;2081797;28;20195;-72
2022/02/20 00:33:02;;;;;;;41.67;24.95;;;;;;;-2.00;100.00;98948.91;2080503;28;20203;-72
2022/02/20 00:34:07;;;;;;;40.42;23.75;;;;;;;-2.04;100.00;98941.69;2081786;28;20713;-71
2022/02/20 00:35:13;;;;;;;42.78;24.05;;;;;;;-2.04;100.00;98945.09;2081867;28;20200;-71
2022/02/20 00:36:18;;;;;;;40.17;25.42;;;;;;;-2.06;100.00;98943.75;2081455;28;20242;-72
2022/02/20 00:37:26;;;;;;;43.58;25.40;;;;;;;-2.09;100.00;98952.78;2081786;28;20204;-72
2022/02/20 00:38:30;;;;;;;44.20;24.83;;;;;;;-2.13;100.00;98945.63;2082285;28;20544;-73
2022/02/20 00:39:37;;;;;;;40.78;24.40;;;;;;;-2.14;100.00;98936.97;2082060;28;20195;-72
2022/02/20 00:40:40;;;;;;;36.90;24.42;;;;;;;-2.15;100.00;98934.59;2074856;28;20391;-72
2022/02/20 00:41:43;;;;;;;38.67;24.35;;;;;;;-2.17;100.00;98936.59;2081983;28;20622;-72
2022/02/20 00:42:46;;;;;;;40.08;25.23;;;;;;;-2.19;100.00;98926.34;2081872;28;20583;-72
2022/02/20 00:43:57;;;;;;;44.35;26.17;;;;;;;-2.21;100.00;98923.16;2081949;28;20583;-72
2022/02/20 00:45:00;;;;;;;34.17;24.20;;;;;;;-2.22;100.00;98931.22;2082535;28;20198;-72
2022/02/20 00:46:04;;;;;;;41.92;23.20;;;;;;;-2.24;100.00;98928.03;2081988;28;20206;-72
2022/02/20 00:47:07;;;;;;;43.65;25.90;;;;;;;-2.28;100.00;98928.47;2074130;28;20302;-72
2022/02/20 00:48:09;;;;;;;45.60;24.23;;;;;;;-2.28;100.00;98925.84;2074033;28;20200;-72
2022/02/20 00:49:10;;;;;;;43.53;24.27;;;;;;;-2.31;100.00;98922.88;2082143;28;20249;-72
2022/02/20 00:50:17;;;;;;;46.45;25.05;;;;;;;-2.32;100.00;98922.06;2090080;28;20194;-72
2022/02/20 00:51:20;;;;;;;45.17;25.05;;;;;;;-2.31;100.00;98922.88;2081734;28;20219;-72
2022/02/20 00:52:23;;;;;;;41.10;24.88;;;;;;;-2.35;100.00;98919.88;2074313;28;20223;-71
2022/02/20 00:53:29;;;;;;;43.83;24.77;;;;;;;-2.35;100.00;98925.09;2073868;28;20205;-72
2022/02/20 00:54:32;;;;;;;35.75;23.90;;;;;;;-2.37;100.00;98924.53;2074396;28;20295;-72
2022/02/20 00:55:34;;;;;;;45.05;24.83;;;;;;;-2.38;100.00;98928.16;2073810;28;20207;-72
2022/02/20 00:56:40;;;;;;;42.72;25.23;;;;;;;-2.36;100.00;98927.94;2074029;28;20230;-72
2022/02/20 00:57:46;;;;;;;45.53;25.15;;;;;;;-2.39;100.00;98923.94;2074498;28;20200;-72
2022/02/20 00:58:54;;;;;;;46.97;24.42;;;;;;;-2.39;100.00;98920.53;2074337;28;20200;-72
2022/02/20 01:00:01;;;;;;;41.28;24.25;;;;;;;-2.40;100.00;98917.13;2081661;28;20250;-72
2022/02/20 01:01:06;;;;;;;45.42;25.10;;;;;;;-2.43;100.00;98914.13;2081682;28;20200;-71
2022/02/20 01:02:10;;;;;;;41.35;23.83;;;;;;;-2.43;100.00;98920.19;2074562;28;20200;-72
2022/02/20 01:03:14;;;;;;;39.25;24.33;;;;;;;-2.43;100.00;98916.75;2081722;28;20560;-72
2022/02/20 01:04:18;;;;;;;43.90;25.42;;;;;;;-2.45;100.00;98911.75;2074195;28;20295;-72
2022/02/20 01:05:25;;;;;;;38.40;25.00;;;;;;;-2.46;100.00;98910.16;2074476;28;20367;-72
2022/02/20 01:06:31;;;;;;;39.08;25.08;;;;;;;-2.46;100.00;98910.16;2081010;28;20277;-72
2022/02/20 01:07:39;;;;;;;40.58;24.45;;;;;;;-2.50;100.00;98913.41;2081901;28;20223;-72
2022/02/20 01:08:48;;;;;;;41.88;25.52;;;;;;;-2.51;100.00;98907.41;2074586;28;20204;-72
2022/02/20 01:09:52;;;;;;;56.72;25.73;;;;;;;-2.51;100.00;98910.00;2074625;28;20208;-72
2022/02/20 01:10:54;;;;;;;43.63;24.83;;;;;;;-2.52;100.00;98911.00;2081971;28;20231;-72
2022/02/20 01:12:01;;;;;;;43.50;25.13;;;;;;;-2.52;100.00;98910.19;2081652;28;20210;-72
2022/02/20 01:13:07;;;;;;;42.42;25.17;;;;;;;-2.57;100.00;98903.81;2081713;28;20290;-72
2022/02/20 01:14:14;;;;;;;40.33;24.60;;;;;;;-2.59;100.00;98902.44;2073969;28;20215;-72
2022/02/20 01:15:23;;;;;;;40.40;24.73;;;;;;;-2.56;100.00;98915.06;2081798;28;20230;-72
2022/02/20 01:16:25;;;;;;;44.45;25.65;;;;;;;-2.59;100.00;98907.66;2081462;28;20210;-72
2022/02/20 01:17:33;;;;;;;39.67;24.55;;;;;;;-2.60;100.00;98899.03;2081757;28;20191;-72
2022/02/20 01:18:37;;;;;;;46.97;24.85;;;;;;;-2.59;100.00;98905.06;2081959;28;20724;-72
2022/02/20 01:19:41;;;;;;;38.40;24.77;;;;;;;-2.60;100.00;98890.41;2082557;28;20207;-72
2022/02/20 01:20:49;;;;;;;40.42;25.00;;;;;;;-2.56;100.00;98900.19;2081501;28;20210;-72
2022/02/20 01:21:59;;;;;;;48.83;26.00;;;;;;;-2.55;100.00;98895.75;2066210;28;20590;-72
2022/02/20 01:23:01;;;;;;;37.47;24.30;;;;;;;-2.53;100.00;98898.94;2066349;28;20208;-72
2022/02/20 01:24:06;;;;;;;38.45;24.60;;;;;;;-2.47;100.00;98892.06;2073546;28;20204;-72
2022/02/20 01:25:17;;;;;;;36.35;24.08;;;;;;;-2.47;100.00;98894.69;2081286;28;20713;-72
2022/02/20 01:26:25;;;;;;;32.65;23.23;;;;;;;-2.39;100.00;98892.59;2080381;28;20212;-72
2022/02/20 01:27:32;;;;;;;39.28;22.65;;;;;;;-2.32;100.00;98893.34;2081753;28;20238;-72
2022/02/20 01:28:38;;;;;;;35.20;22.27;;;;;;;-2.25;100.00;98892.47;2073339;28;20569;-71
2022/02/20 01:29:40;;;;;;;37.13;22.55;;;;;;;-2.18;100.00;98890.56;2073732;28;20208;-72
2022/02/20 01:30:43;;;;;;;37.35;24.40;;;;;;;-2.13;100.00;98888.13;2065352;28;20232;-72
2022/02/20 01:31:47;;;;;;;33.03;22.92;;;;;;;-2.08;100.00;98878.63;2065441;28;20197;-72
2022/02/20 01:32:57;;;;;;;33.92;22.42;;;;;;;-2.03;100.00;98883.97;2065560;28;20283;-72
2022/02/20 01:34:02;;;;;;;44.17;24.55;;;;;;;-2.02;100.00;98875.09;2074932;28;20708;-72
2022/02/20 01:35:08;;;;;;;26.13;20.95;;;;;;;-1.95;100.00;98877.66;2073640;28;20207;-72
2022/02/20 01:36:12;;;;;;;40.63;24.10;;;;;;;-1.90;100.00;98877.00;2075260;28;20200;-72
2022/02/20 01:37:15;;;;;;;43.70;23.67;;;;;;;-1.93;100.00;98878.22;2089621;28;20198;-72
2022/02/20 01:38:18;;;;;;;38.50;24.95;;;;;;;-1.94;100.00;98875.84;2081639;28;20643;-72
2022/02/20 01:39:26;;;;;;;34.67;23.38;;;;;;;-1.98;100.00;98875.50;2081806;28;20206;-72
2022/02/20 01:40:38;;;;;;;39.03;24.73;;;;;;;-1.99;100.00;98873.91;2074907;28;20295;-72
2022/02/20 01:41:53;;;;;;;37.75;23.83;;;;;;;-2.02;100.00;98869.09;2074569;28;20576;-72
2022/02/20 01:43:01;;;;;;;41.38;25.30;;;;;;;-2.06;100.00;98860.91;2075447;28;20204;-72
2022/02/20 01:44:07;;;;;;;42.55;25.38;;;;;;;-2.11;100.00;98854.72;2081566;28;20195;-72
2022/02/20 01:45:14;;;;;;;42.20;25.15;;;;;;;-2.13;100.00;98857.56;2081640;28;20235;-73
2022/02/20 01:46:18;;;;;;;37.35;23.30;;;;;;;-2.17;100.00;98853.78;2073761;28;20219;-72
2022/02/20 01:47:24;;;;;;;41.47;24.55;;;;;;;-2.13;100.00;98848.91;2081467;28;20211;-72
2022/02/20 01:48:36;;;;;;;35.30;24.00;;;;;;;-2.16;100.00;98857.22;2081432;28;20227;-72
2022/02/20 01:49:46;;;;;;;42.42;26.52;;;;;;;-2.18;100.00;98849.56;2074747;28;20289;-72
2022/02/20 01:50:47;;;;;;;29.08;20.60;;;;;;;-2.18;100.00;98852.19;2074724;28;20247;-72
2022/02/20 01:51:51;;;;;;;28.33;21.00;;;;;;;-2.14;100.00;98850.72;2073094;28;20308;-72
2022/02/20 01:52:59;;;;;;;26.05;21.05;;;;;;;-2.11;100.00;98852.91;2073414;28;20291;-72
2022/02/20 01:54:04;;;;;;;29.17;20.77;;;;;;;-2.02;100.00;98853.41;2081404;28;20210;-72
2022/02/20 01:55:12;;;;;;;28.05;20.98;;;;;;;-1.94;100.00;98855.72;2073684;28;20583;-72
2022/02/20 01:56:28;;;;;;;34.85;22.30;;;;;;;-1.86;100.00;98844.97;2075927;28;20670;-72
2022/02/20 01:57:40;;;;;;;41.70;25.00;;;;;;;-1.80;100.00;98849.31;2081808;28;20630;-72
2022/02/20 01:59:11;;;;;;;36.58;24.55;;;;;;;-1.78;100.00;98843.88;2082268;28;20241;-72
2022/02/20 02:00:22;;;;;;;25.98;19.50;;;;;;;-1.76;100.00;98847.84;2082129;28;20559;-72
2022/02/20 02:01:38;;;;;;;42.70;25.08;;;;;;;-1.72;100.00;98838.56;2081365;28;20205;-72
2022/02/20 02:02:50;;;;;;;30.25;20.70;;;;;;;-1.69;100.00;98831.28;2075009;28;20269;-72
2022/02/20 02:04:22;;;;;;;24.15;19.13;;;;;;;-1.63;100.00;98835.63;2081460;28;20214;-72
2022/02/20 02:05:32;;;;;;;30.00;20.83;;;;;;;-1.59;100.00;98834.16;2081441;28;20278;-72
2022/02/20 02:06:34;;;;;;;30.92;19.98;;;;;;;-1.55;100.00;98828.25;2081150;28;20591;-72
2022/02/20 02:07:41;;;;;;;27.55;19.98;;;;;;;-1.52;100.00;98827.00;2081283;28;20298;-72
2022/02/20 02:09:07;;;;;;;28.05;20.33;;;;;;;-1.52;100.00;98827.81;2081252;28;20210;-72
2022/02/20 02:10:32;;;;;;;32.55;20.58;;;;;;;-1.52;100.00;98827.00;2076270;28;20233;-72
2022/02/20 02:11:52;;;;;;;39.25;24.63;;;;;;;-1.57;100.00;98825.06;2076036;28;20219;-72
2022/02/20 02:13:14;;;;;;;22.50;19.42;;;;;;;-1.62;100.00;98827.56;2073061;28;20715;-72
2022/02/20 02:14:31;;;;;;;31.42;19.83;;;;;;;-1.67;100.00;98818.78;2081323;28;20195;-72
2022/02/20 02:15:52;;;;;;;31.23;21.55;;;;;;;-1.70;100.00;98814.78;2074592;28;20546;-72
2022/02/20 02:17:16;;;;;;;36.28;24.02;;;;;;;-1.71;100.00;98806.16;2081803;28;20180;-72
2022/02/20 02:18:34;;;;;;;32.03;21.92;;;;;;;-1.69;100.00;98812.97;2081329;28;20204;-72
2022/02/20 02:19:59;;;;;;;26.13;20.25;;;;;;;-1.74;100.00;98811.84;2081848;28;20171;-72
2022/02/20 02:21:23;;;;;;;27.05;19.10;;;;;;;-1.75;100.00;98812.81;2080759;28;20223;-72
2022/02/20 02:22:49;;;;;;;30.02;19.67;;;;;;;-1.73;100.00;98805.59;2081684;28;20271;-72
2022/02/20 02:24:02;;;;;;;24.55;19.40;;;;;;;-1.69;100.00;98807.75;2082013;28;20227;-72
2022/02/20 02:25:42;;;;;;;21.65;18.67;;;;;;;-1.61;100.00;98812.66;2077663;28;20207;-72
2022/02/20 02:27:14;;;;;;;23.27;18.75;;;;;;;-1.55;100.00;98811.78;2081383;28;20204;-72
2022/02/20 02:28:34;;;;;;;25.45;19.73;;;;;;;-1.50;100.00;98810.06;2081679;28;20239;-72
2022/02/20 02:29:38;;;;;;;26.42;18.60;;;;;;;-1.46;100.00;98810.44;2081239;28;20243;-72
2022/02/20 02:30:48;;;;;;;22.52;18.20;;;;;;;-1.37;100.00;98814.31;2081239;28;20250;-72
2022/02/20 02:31:59;;;;;;;25.42;19.50;;;;;;;-1.30;100.00;98809.78;2074489;28;20208;-72
2022/02/20 02:33:02;;;;;;;26.80;19.00;;;;;;;-1.24;100.00;98813.31;2074476;28;20207;-72
2022/02/20 02:34:04;;;;;;;22.95;18.90;;;;;;;-1.22;100.00;98809.44;2081547;28;20232;-72
2022/02/20 02:35:09;;;;;;;35.15;22.90;;;;;;;-1.18;100.00;98817.66;2081274;28;20246;-72
2022/02/20 02:36:17;;;;;;;28.23;18.98;;;;;;;-1.21;100.00;98811.06;2074173;28;20637;-73
2022/02/20 02:37:22;;;;;;;38.78;23.33;;;;;;;-1.24;100.00;98805.47;2075502;28;20706;-72
2022/02/20 02:38:30;;;;;;;26.52;18.77;;;;;;;-1.26;100.00;98810.13;2075656;28;20266;-72
2022/02/20 02:39:36;;;;;;;22.23;19.23;;;;;;;-1.31;100.00;98813.41;2083011;28;20199;-72
2022/02/20 02:40:40;;;;;;;25.05;18.85;;;;;;;-1.31;100.00;98807.38;2083520;28;20535;-72
2022/02/20 02:41:44;;;;;;;21.90;17.85;;;;;;;-1.25;100.00;98802.03;2082838;28;20669;-72
2022/02/20 02:42:51;;;;;;;28.40;20.00;;;;;;;-1.24;100.00;98805.47;2075557;28;20247;-72
2022/02/20 02:44:00;;;;;;;22.70;18.25;;;;;;;-1.25;100.00;98796.81;2075675;28;20204;-72
2022/02/20 02:45:06;;;;;;;22.48;18.15;;;;;;;-1.19;100.00;98797.75;2083126;28;20199;-72
2022/02/20 02:46:14;;;;;;;25.20;19.33;;;;;;;-1.17;100.00;98801.72;2082764;28;20207;-72
2022/02/20 02:47:15;;;;;;;25.17;19.30;;;;;;;-1.12;100.00;98800.25;2082685;28;20262;-72
2022/02/20 02:48:19;;;;;;;30.15;19.50;;;;;;;-1.12;100.00;98802.88;2074688;28;20205;-72
2022/02/20 02:49:24;;;;;;;20.20;18.00;;;;;;;-1.10;100.00;98803.44;2082884;28;20241;-72
2022/02/20 02:50:31;;;;;;;26.63;19.42;;;;;;;-1.08;100.00;98796.16;2082403;28;20269;-72
2022/02/20 02:51:38;;;;;;;23.75;18.13;;;;;;;-1.04;100.00;98795.47;2082340;28;20227;-72
2022/02/20 02:52:47;;;;;;;22.95;18.58;;;;;;;-1.01;100.00;98795.03;2075296;28;20212;-72
2022/02/20 02:53:57;;;;;;;20.33;18.25;;;;;;;-0.96;100.00;98800.34;2075995;28;20219;-72
2022/02/20 02:55:00;;;;;;;25.40;18.55;;;;;;;-0.93;100.00;98796.50;2075469;28;20189;-72
2022/02/20 02:56:05;;;;;;;20.30;18.20;;;;;;;-0.85;100.00;98804.03;2083024;28;20273;-72
2022/02/20 02:57:10;;;;;;;20.83;18.05;;;;;;;-0.82;100.00;98790.47;2082589;28;20294;-72
2022/02/20 02:58:19;;;;;;;22.38;18.63;;;;;;;-0.78;100.00;98794.22;2083070;28;20258;-72
2022/02/20 02:59:24;;;;;;;23.98;19.38;;;;;;;-0.75;100.00;98791.16;2075624;28;20294;-72
2022/02/20 03:00:33;;;;;;;21.13;18.90;;;;;;;-0.72;100.00;98785.44;2082644;28;20309;-72
2022/02/20 03:01:36;;;;;;;26.33;19.15;;;;;;;-0.70;100.00;98793.06;2075829;28;20203;-72
2022/02/20 03:02:39;;;;;;;27.58;21.30;;;;;;;-0.74;100.00;98781.47;2074894;28;20204;-72
2022/02/20 03:03:44;;;;;;;19.13;17.35;;;;;;;-0.76;100.00;98783.53;2082723;28;20737;-72
2022/02/20 03:05:00;;;;;;;27.25;20.63;;;;;;;-0.78;100.00;98781.13;2075707;28;20227;-72
2022/02/20 03:06:12;;;;;;;35.55;22.52;;;;;;;-0.83;100.00;98767.13;2075652;28;20200;-72
2022/02/20 03:07:17;;;;;;;22.02;18.42;;;;;;;-0.89;100.00;98768.81;2082835;28;20204;-72
2022/02/20 03:08:20;;;;;;;32.38;22.70;;;;;;;-0.88;100.00;98770.41;2075434;28;20200;-72
2022/02/20 03:09:22;;;;;;;20.25;18.27;;;;;;;-0.93;100.00;98767.69;2074545;28;20198;-72
2022/02/20 03:10:33;;;;;;;26.90;19.75;;;;;;;-0.91;100.00;98763.03;2082806;28;20216;-72
2022/02/20 03:11:40;;;;;;;19.80;17.90;;;;;;;-0.90;100.00;98762.00;2082599;28;20191;-72
2022/02/20 03:12:51;;;;;;;30.38;21.58;;;;;;;-0.87;100.00;98761.53;2076127;28;20199;-72
2022/02/20 03:13:59;;;;;;;20.35;18.13;;;;;;;-0.88;100.00;98750.25;2082081;28;20204;-72
2022/02/20 03:15:03;;;;;;;25.80;19.92;;;;;;;-0.89;100.00;98753.13;2075499;28;20294;-72
2022/02/20 03:16:06;;;;;;;32.65;22.45;;;;;;;-0.90;100.00;98741.03;2082535;28;20187;-72
2022/02/20 03:17:09;;;;;;;34.03;23.83;;;;;;;-0.96;100.00;98732.28;2082578;28;20196;-72
2022/02/20 03:18:13;;;;;;;28.48;20.70;;;;;;;-1.02;100.00;98732.41;2082666;28;20249;-72
2022/02/20 03:19:21;;;;;;;41.28;23.17;;;;;;;-1.11;100.00;98724.13;2083199;28;20310;-72
2022/02/20 03:20:28;;;;;;;35.00;22.63;;;;;;;-1.19;100.00;98721.84;2082891;28;20207;-72
2022/02/20 03:21:33;;;;;;;36.22;22.60;;;;;;;-1.29;100.00;98725.03;2074588;28;20286;-72
2022/02/20 03:22:39;;;;;;;34.45;22.92;;;;;;;-1.40;100.00;98711.91;2075733;28;20574;-73
2022/02/20 03:23:42;;;;;;;32.00;22.83;;;;;;;-1.49;100.00;98711.44;2082535;28;20184;-72
2022/02/20 03:24:56;;;;;;;38.92;23.95;;;;;;;-1.56;100.00;98706.34;2082620;28;20299;-72
2022/02/20 03:26:01;;;;;;;33.08;23.65;;;;;;;-1.65;100.00;98699.84;2076412;28;20196;-72
2022/02/20 03:27:17;;;;;;;35.75;23.92;;;;;;;-1.71;100.00;98709.38;2075663;28;20219;-72
2022/02/20 03:28:25;;;;;;;33.83;22.73;;;;;;;-1.77;100.00;98702.44;2075547;28;20216;-72
2022/02/20 03:29:36;;;;;;;30.92;22.70;;;;;;;-1.82;100.00;98702.34;2075957;28;20200;-72
2022/02/20 03:30:39;;;;;;;38.22;22.95;;;;;;;-1.86;100.00;98697.75;2082502;28;20215;-72
2022/02/20 03:31:47;;;;;;;27.25;20.15;;;;;;;-1.91;100.00;98698.44;2082603;28;20747;-72
2022/02/20 03:32:57;;;;;;;23.88;20.63;;;;;;;-1.92;100.00;98694.22;2082506;28;20607;-72
2022/02/20 03:34:02;;;;;;;34.38;22.17;;;;;;;-1.92;100.00;98696.81;2082369;28;20347;-72
2022/02/20 03:35:09;;;;;;;32.97;21.83;;;;;;;-1.92;100.00;98696.03;2082751;28;20206;-72
2022/02/20 03:36:14;;;;;;;32.25;21.10;;;;;;;-1.94;100.00;98691.03;2089466;28;20194;-72
2022/02/20 03:37:18;;;;;;;20.23;18.00;;;;;;;-1.95;100.00;98688.66;2090628;28;20629;-72
2022/02/20 03:38:23;;;;;;;24.20;18.85;;;;;;;-1.91;100.00;98692.41;2082378;28;20254;-71
2022/02/20 03:39:32;;;;;;;22.20;18.63;;;;;;;-1.87;100.00;98686.50;2082668;28;20259;-72
2022/02/20 03:40:46;;;;;;;32.45;21.30;;;;;;;-1.83;100.00;98687.63;2082254;28;20204;-72
2022/02/20 03:41:52;;;;;;;24.20;19.83;;;;;;;-1.78;100.00;98686.97;2082500;28;20208;-72
2022/02/20 03:43:15;;;;;;;19.88;17.88;;;;;;;-1.75;100.00;98684.69;2082660;28;20196;-72
2022/02/20 03:44:26;;;;;;;19.42;17.40;;;;;;;-1.67;100.00;98693.25;2082387;28;20196;-72
2022/02/20 03:45:50;;;;;;;19.45;17.40;;;;;;;-1.61;100.00;98689.72;2076533;28;20188;-72
2022/02/20 03:46:58;;;;;;;29.70;17.30;;;;;;;-1.59;100.00;98685.06;2075526;28;20208;-72
2022/02/20 03:48:02;;;;;;;19.45;17.45;;;;;;;-1.54;100.00;98687.81;2074582;28;20224;-72
2022/02/20 03:49:09;;;;;;;26.45;19.33;;;;;;;-1.50;100.00;98683.72;2074607;28;20212;-72
2022/02/20 03:50:34;;;;;;;21.98;17.48;;;;;;;-1.43;100.00;98693.03;2082432;28;20203;-72
2022/02/20 03:51:36;;;;;;;24.20;18.52;;;;;;;-1.44;100.00;98690.66;2081938;28;20227;-72
2022/02/20 03:52:42;;;;;;;29.00;19.40;;;;;;;-1.43;100.00;98689.63;2082670;28;20203;-72
2022/02/20 03:53:57;;;;;;;29.08;21.15;;;;;;;-1.41;100.00;98682.34;2082740;28;20207;-72
2022/02/20 03:55:01;;;;;;;20.10;17.73;;;;;;;-1.41;100.00;98682.34;2075479;28;20215;-72
2022/02/20 03:56:15;;;;;;;26.08;20.25;;;;;;;-1.43;100.00;98684.41;2075210;28;20251;-72
2022/02/20 03:57:23;;;;;;;26.20;17.92;;;;;;;-1.46;100.00;98672.56;2076097;28;20612;-72
2022/02/20 03:58:46;;;;;;;20.63;18.45;;;;;;;-1.45;100.00;98671.53;2082787;28;20613;-72
2022/02/20 03:59:50;;;;;;;26.02;18.05;;;;;;;-1.43;100.00;98679.16;2082231;28;20688;-72
2022/02/20 04:00:59;;;;;;;23.70;18.80;;;;;;;-1.44;100.00;98674.97;2074653;28;20192;-72
2022/02/20 04:02:30;;;;;;;18.60;16.75;;;;;;;-1.31;100.00;98682.56;2081425;28;20290;-72
2022/02/20 04:03:36;;;;;;;22.85;18.58;;;;;;;-1.29;100.00;98674.50;2090214;28;20222;-72
2022/02/20 04:04:42;;;;;;;19.33;17.30;;;;;;;-1.21;100.00;98680.19;2082029;28;20230;-72
2022/02/20 04:05:47;;;;;;;19.50;17.50;;;;;;;-1.17;100.00;98678.69;2074375;28;20231;-73
2022/02/20 04:06:58;;;;;;;21.20;18.63;;;;;;;-1.12;100.00;98674.63;2081871;28;20224;-72
2022/02/20 04:08:06;;;;;;;23.55;18.38;;;;;;;-1.11;100.00;98673.59;2082408;28;20220;-71
2022/02/20 04:09:13;;;;;;;21.90;18.23;;;;;;;-1.05;100.00;98678.69;2082421;28;20290;-72
2022/02/20 04:10:19;;;;;;;19.95;18.00;;;;;;;-1.01;100.00;98671.97;2075340;28;20204;-71
2022/02/20 04:11:25;;;;;;;23.42;19.70;;;;;;;-0.96;100.00;98671.25;2082114;28;20287;-72
2022/02/20 04:12:47;;;;;;;18.95;17.10;;;;;;;-0.99;100.00;98664.66;2082113;28;20211;-72
2022/02/20 04:13:58;;;;;;;19.95;17.90;;;;;;;-0.93;100.00;98668.22;2082169;28;20195;-72
2022/02/20 04:15:16;;;;;;;17.77;16.25;;;;;;;-0.88;100.00;98669.09;2082150;28;20207;-72
2022/02/20 04:16:26;;;;;;;19.75;17.05;;;;;;;-0.83;100.00;98673.66;2075658;28;20302;-72
2022/02/20 04:17:39;;;;;;;19.05;17.20;;;;;;;-0.81;100.00;98668.97;2074701;28;20224;-72
2022/02/20 04:18:42;;;;;;;19.42;16.75;;;;;;;-0.76;100.00;98666.47;2081882;28;20218;-72
2022/02/20 04:19:52;;;;;;;23.83;16.88;;;;;;;-0.68;100.00;98665.28;2075339;28;20259;-72
2022/02/20 04:20:59;;;;;;;19.35;17.45;;;;;;;-0.67;100.00;98659.03;2081781;28;20345;-72
2022/02/20 04:22:05;;;;;;;19.42;17.38;;;;;;;-0.62;100.00;98659.91;2074623;28;20351;-72
2022/02/20 04:23:09;;;;;;;17.73;16.23;;;;;;;-0.58;100.00;98655.81;2082235;28;20176;-72
2022/02/20 04:24:18;;;;;;;21.88;18.02;;;;;;;-0.56;100.00;98658.19;2082946;28;20255;-72
2022/02/20 04:25:22;;;;;;;23.77;17.90;;;;;;;-0.54;100.00;98647.47;2081942;28;20322;-72
2022/02/20 04:26:27;;;;;;;18.58;16.85;;;;;;;-0.52;100.00;98641.00;2082162;28;20643;-72
2022/02/20 04:27:32;;;;;;;19.23;17.30;;;;;;;-0.46;100.00;98652.34;2082390;28;20222;-72
2022/02/20 04:28:40;;;;;;;18.30;16.63;;;;;;;-0.40;100.00;98640.94;2073297;28;20617;-73
2022/02/20 04:29:46;;;;;;;18.50;16.75;;;;;;;-0.30;100.00;98641.91;2074523;28;20211;-72
2022/02/20 04:30:52;;;;;;;19.80;18.10;;;;;;;-0.26;100.00;98644.84;2074687;28;20614;-72
2022/02/20 04:31:55;;;;;;;18.73;17.08;;;;;;;-0.21;100.00;98647.56;2082087;28;20581;-72
2022/02/20 04:32:58;;;;;;;20.05;17.92;;;;;;;-0.16;100.00;98637.16;2090145;28;20693;-72
2022/02/20 04:33:59;;;;;;;19.50;16.88;;;;;;;-0.09;100.00;98645.69;2090206;28;20239;-72
2022/02/20 04:35:05;;;;;;;18.40;16.67;;;;;;;-0.07;100.00;98638.38;2081940;28;20203;-72
2022/02/20 04:36:12;;;;;;;18.60;16.98;;;;;;;-0.02;100.00;98642.88;2073838;28;20635;-72
2022/02/20 04:37:24;;;;;;;18.85;16.88;;;;;;;0.13;100.00;98644.97;2075349;28;20310;-72
2022/02/20 04:38:32;;;;;;;18.30;16.65;;;;;;;0.26;98.89;98648.06;2074514;28;20207;-72
2022/02/20 04:39:42;;;;;;;18.25;16.60;;;;;;;0.45;96.62;98651.25;2075012;28;20211;-72
2022/02/20 04:40:44;;;;;;;17.70;16.30;;;;;;;0.52;94.94;98649.25;2073678;28;20208;-72
2022/02/20 04:42:01;;;;;;;18.73;16.75;;;;;;;0.68;91.22;98655.50;2081930;28;20630;-72
2022/02/20 04:43:39;;;;;;;18.25;16.33;;;;;;;0.79;89.57;98645.94;2081147;28;20203;-72
2022/02/20 04:44:49;;;;;;;18.52;16.67;;;;;;;0.90;87.70;98649.50;2082780;28;20199;-72
2022/02/20 04:45:59;;;;;;;18.73;16.90;;;;;;;1.00;86.65;98647.78;2082397;28;20766;-72
2022/02/20 04:47:03;;;;;;;18.60;17.10;;;;;;;1.16;84.72;98647.97;2073881;28;20197;-72
2022/02/20 04:48:09;;;;;;;18.58;16.95;;;;;;;1.34;81.57;98645.81;2073864;28;20222;-72
2022/02/20 04:49:16;;;;;;;18.33;16.73;;;;;;;1.47;80.39;98639.38;2074386;28;20222;-72
2022/02/20 04:50:41;;;;;;;18.08;16.40;;;;;;;1.61;78.60;98647.69;2082203;28;20274;-72
2022/02/20 04:51:53;;;;;;;16.90;15.75;;;;;;;1.81;75.59;98649.72;2081585;28;20223;-72
2022/02/20 04:53:19;;;;;;;17.40;15.80;;;;;;;1.89;75.58;98644.00;2081589;28;20202;-72
2022/02/20 04:54:29;;;;;;;17.80;16.35;;;;;;;1.99;74.37;98647.50;2090461;28;20207;-72
2022/02/20 04:55:33;;;;;;;18.02;16.50;;;;;;;2.05;72.99;98645.72;2081833;28;20227;-71
2022/02/20 04:56:42;;;;;;;17.88;16.27;;;;;;;2.21;71.22;98644.81;2073341;28;20287;-72
2022/02/20 04:57:57;;;;;;;17.38;16.17;;;;;;;2.33;70.59;98647.25;2075249;28;20200;-72
2022/02/20 04:59:01;;;;;;;18.30;16.60;;;;;;;2.41;69.59;98638.09;2074159;28;20204;-72
2022/02/20 05:00:16;;;;;;;17.63;16.13;;;;;;;2.42;69.33;98645.75;2075328;28;20346;-72
2022/02/20 05:01:38;;;;;;;17.67;16.13;;;;;;;2.53;68.95;98646.63;2081838;28;20290;-72
2022/02/20 05:02:57;;;;;;;17.30;15.82;;;;;;;2.63;67.43;98636.16;2081816;28;20206;-72
2022/02/20 05:04:01;;;;;;;17.65;16.13;;;;;;;2.66;67.73;98642.75;2073965;28;20263;-72
2022/02/20 05:05:17;;;;;;;17.85;16.15;;;;;;;2.68;66.87;98638.00;2074675;28;20211;-73
2022/02/20 05:06:27;;;;;;;17.83;16.40;;;;;;;2.67;67.16;98625.91;2081620;28;20219;-73
2022/02/20 05:07:30;;;;;;;17.98;16.52;;;;;;;2.71;66.79;98622.50;2089987;28;20191;-72
2022/02/20 05:08:33;;;;;;;18.20;16.30;;;;;;;2.74;66.20;98624.63;2081695;28;20215;-71
2022/02/20 05:09:36;;;;;;;18.10;16.30;;;;;;;2.81;65.47;98619.94;2082047;28;20198;-72
2022/02/20 05:10:43;;;;;;;17.35;15.90;;;;;;;2.82;65.89;98616.25;2082353;28;20278;-72
2022/02/20 05:11:50;;;;;;;17.55;16.25;;;;;;;2.83;64.96;98614.41;2081718;28;20736;-72